Energy Zeus — WDD3941 — position and weather

sailwx.info

Track history (hours):
 
Tides and Currents Weather Stations Pressure Air Temp Water Temp Dewpoint Dewpoint Depression Visibility Wind Speed Wind Dir Waves Ship Positions

Energy Zeus

Owner: Seabulk Towing Services, Inc., Fort Lauderdale, FL. More information available from US FCC via Universal Licensing System and Coast Guard Vessel Documentation Center.

Last reported at 2018-Feb-17 21:31 UTC. Time now 2018-Feb-17 21:47 UTC.
Position N 30°11' W 093°19'.

Length 30 m; draft 4 m.

Type: Tug. MMSI: 367138360.

Date/timePositionNaut miles runAvg speedWind from/ knotsBaromVisibWave heightAir tempDewpointWater temp
2018-Feb-17 21:31N 30°11' W 093°19'0 0.4
2018-Feb-17 21:00N 30°11' W 093°19'1 1.5
2018-Feb-17 20:30N 30°10' W 093°19'4 7.0
2018-Feb-17 20:00N 30°07' W 093°20'2 4.0
2018-Feb-17 19:28N 30°06' W 093°17'0 0.0
2018-Feb-17 18:58N 30°06' W 093°17'0 0.0
2018-Feb-17 18:28N 30°06' W 093°17'0 0.0
2018-Feb-17 17:58N 30°06' W 093°17'0 0.0
2018-Feb-17 17:28N 30°06' W 093°17'0 0.0
2018-Feb-17 16:58N 30°06' W 093°17'0 0.0
2018-Feb-17 16:28N 30°06' W 093°17'0 0.0
2018-Feb-17 15:58N 30°06' W 093°17'0 0.0
2018-Feb-17 15:28N 30°06' W 093°17'0 0.0
2018-Feb-17 14:58N 30°06' W 093°17'0 0.0
2018-Feb-17 14:28N 30°06' W 093°17'0 0.0
2018-Feb-17 13:58N 30°06' W 093°17'0 0.0
2018-Feb-17 13:28N 30°06' W 093°17'0 0.0
2018-Feb-17 12:58N 30°06' W 093°17'0 0.0
2018-Feb-17 12:25N 30°06' W 093°17'0 0.0
2018-Feb-17 11:58N 30°06' W 093°17'0 0.0
2018-Feb-17 11:28N 30°06' W 093°17'0 0.0
2018-Feb-17 10:58N 30°06' W 093°17'0 0.0
2018-Feb-17 10:28N 30°06' W 093°17'0 0.0
2018-Feb-17 09:58N 30°06' W 093°17'0 0.0
2018-Feb-17 09:28N 30°06' W 093°17'0 0.0
2018-Feb-17 08:58N 30°06' W 093°17'0 0.0
2018-Feb-17 08:28N 30°06' W 093°17'0 0.0
2018-Feb-17 07:58N 30°06' W 093°17'0 0.0
2018-Feb-17 07:28N 30°06' W 093°17'0 0.0
2018-Feb-17 06:58N 30°06' W 093°17'0 0.0
2018-Feb-17 06:28N 30°06' W 093°17'0 0.0
2018-Feb-17 05:58N 30°06' W 093°17'0 0.0
2018-Feb-17 05:28N 30°06' W 093°17'0 0.0
2018-Feb-17 04:58N 30°06' W 093°17'0 0.0
2018-Feb-17 04:28N 30°06' W 093°17'0 0.0
2018-Feb-17 03:58N 30°06' W 093°17'0 0.0
2018-Feb-17 03:28N 30°06' W 093°17'0 0.0
2018-Feb-17 02:58N 30°06' W 093°17'0 0.0
2018-Feb-17 02:28N 30°06' W 093°17'0 0.0
2018-Feb-17 01:58N 30°06' W 093°17'0 0.0
2018-Feb-17 01:28N 30°06' W 093°17'0 0.0
2018-Feb-17 00:55N 30°06' W 093°17'0 0.0
2018-Feb-17 00:28N 30°06' W 093°17'0 0.0
2018-Feb-16 23:58N 30°06' W 093°17'0 0.0
2018-Feb-16 23:13N 30°06' W 093°17'0 0.0
2018-Feb-16 22:55N 30°06' W 093°17'0 0.0
2018-Feb-16 22:25N 30°06' W 093°17'0 0.0
2018-Feb-16 21:58N 30°06' W 093°17'0 0.0
2018-Feb-16 21:28N 30°06' W 093°17'0 0.0
2018-Feb-16 20:58N 30°06' W 093°17'0 0.0
2018-Feb-16 20:28N 30°06' W 093°17'1 2.6
2018-Feb-16 19:59N 30°06' W 093°19'3 5.6
2018-Feb-16 19:30N 30°09' W 093°20'2 4.8
2018-Feb-16 19:01N 30°11' W 093°19'1 1.9
2018-Feb-16 18:31N 30°11' W 093°18'0 0.4
2018-Feb-16 18:00N 30°12' W 093°18'1 2.1
2018-Feb-16 17:31N 30°11' W 093°19'1 1.2
2018-Feb-16 17:00N 30°10' W 093°19'1 1.7
2018-Feb-16 16:30N 30°10' W 093°20'0 0.0
2018-Feb-16 16:00N 30°10' W 093°20'4 7.2
2018-Feb-16 15:30N 30°12' W 093°17'1 2.3
2018-Feb-16 15:01N 30°13' W 093°15'0 0.0
2018-Feb-16 14:31N 30°13' W 093°15'0 0.0
2018-Feb-16 14:01N 30°13' W 093°15'0 0.0
2018-Feb-16 13:31N 30°13' W 093°15'0 0.0
2018-Feb-16 13:01N 30°13' W 093°15'0 0.0
2018-Feb-16 12:31N 30°13' W 093°15'0 0.0
2018-Feb-16 11:55N 30°13' W 093°15'0 0.0
2018-Feb-16 11:31N 30°13' W 093°15'0 0.0
2018-Feb-16 11:01N 30°13' W 093°15'0 0.0
2018-Feb-16 10:30N 30°13' W 093°15'0 0.0
2018-Feb-16 09:46N 30°13' W 093°15'0 0.0
2018-Feb-16 09:28N 30°13' W 093°15'0 0.0
2018-Feb-16 08:58N 30°13' W 093°15'0 0.0
2018-Feb-16 08:31N 30°13' W 093°15'0 0.0
2018-Feb-16 08:00N 30°13' W 093°15'0 0.0
2018-Feb-16 07:27N 30°13' W 093°15'0 0.0
2018-Feb-16 07:01N 30°13' W 093°15'0 0.0
2018-Feb-16 06:27N 30°13' W 093°15'0 0.0
2018-Feb-16 06:01N 30°13' W 093°15'0 0.0
2018-Feb-16 05:30N 30°13' W 093°15'0 0.0
2018-Feb-16 04:54N 30°13' W 093°15'0 0.0
2018-Feb-16 04:30N 30°13' W 093°15'0 0.0
2018-Feb-16 03:54N 30°13' W 093°15'0 0.0
2018-Feb-16 03:30N 30°13' W 093°15'0 0.0
2018-Feb-16 03:00N 30°13' W 093°15'0 0.0
2018-Feb-16 02:30N 30°13' W 093°15'0 0.0
2018-Feb-16 02:00N 30°13' W 093°15'0 0.0
2018-Feb-16 01:30N 30°13' W 093°15'0 0.0
2018-Feb-16 01:00N 30°13' W 093°15'0 0.0
2018-Feb-16 00:24N 30°13' W 093°15'0 0.0
2018-Feb-16 00:00N 30°13' W 093°15'0 0.0
2018-Feb-15 23:18N 30°13' W 093°15'0 0.0
2018-Feb-15 23:00N 30°13' W 093°15'0 0.0
2018-Feb-15 22:27N 30°13' W 093°15'0 0.0
2018-Feb-15 22:00N 30°13' W 093°15'0 0.0
2018-Feb-15 21:30N 30°13' W 093°15'0 0.0
2018-Feb-15 21:00N 30°13' W 093°15'0 0.0
2018-Feb-15 20:30N 30°13' W 093°15'0 0.0
2018-Feb-15 19:57N 30°13' W 093°15'0 0.0
2018-Feb-15 19:30N 30°13' W 093°15'0 0.0
2018-Feb-15 18:57N 30°13' W 093°15'0 0.0
2018-Feb-15 18:30N 30°13' W 093°15'0 0.0
2018-Feb-15 18:00N 30°13' W 093°15'0 0.0
2018-Feb-15 17:30N 30°13' W 093°15'0 0.0
2018-Feb-15 17:00N 30°13' W 093°15'0 0.0
2018-Feb-15 16:30N 30°13' W 093°15'0 0.0
2018-Feb-15 16:00N 30°13' W 093°15'0 0.0
2018-Feb-15 15:30N 30°13' W 093°15'0 0.0
2018-Feb-15 15:00N 30°13' W 093°15'0 0.0
2018-Feb-15 14:30N 30°13' W 093°15'0 0.0
2018-Feb-15 14:00N 30°13' W 093°15'0 0.0
2018-Feb-15 13:27N 30°13' W 093°15'0 0.0
2018-Feb-15 13:00N 30°13' W 093°15'0 0.0
2018-Feb-15 12:30N 30°13' W 093°15'0 0.0
2018-Feb-15 12:00N 30°13' W 093°15'0 0.0
2018-Feb-15 11:30N 30°13' W 093°15'0 0.0
2018-Feb-15 10:51N 30°13' W 093°15'0 0.0
2018-Feb-15 10:30N 30°13' W 093°15'0 0.0
2018-Feb-15 09:57N 30°13' W 093°15'0 0.0
2018-Feb-15 09:30N 30°13' W 093°15'0 0.0
2018-Feb-15 08:57N 30°13' W 093°15'0 0.0
2018-Feb-15 08:30N 30°13' W 093°15'0 0.0
2018-Feb-15 07:51N 30°13' W 093°15'0 0.0
2018-Feb-15 07:21N 30°13' W 093°15'0 0.0
2018-Feb-15 06:57N 30°13' W 093°15'0 0.0
2018-Feb-15 06:24N 30°13' W 093°15'0 0.0
2018-Feb-15 05:57N 30°13' W 093°15'0 0.0
2018-Feb-15 05:30N 30°13' W 093°15'0 0.0
2018-Feb-15 05:00N 30°13' W 093°15'0 0.0
2018-Feb-15 04:30N 30°13' W 093°15'0 0.0
2018-Feb-15 04:00N 30°13' W 093°15'0 0.0
2018-Feb-15 03:21N 30°13' W 093°15'0 0.0
2018-Feb-15 02:57N 30°13' W 093°15'0 0.0
2018-Feb-15 02:15N 30°13' W 093°15'0 0.0
2018-Feb-15 01:39N 30°13' W 093°15'0 0.0
2018-Feb-15 01:27N 30°13' W 093°15'0 0.0
2018-Feb-15 00:51N 30°13' W 093°15'0 0.0
2018-Feb-15 00:30N 30°13' W 093°15'0 0.0
2018-Feb-15 00:00N 30°13' W 093°15'0 0.0
2018-Feb-14 23:30N 30°13' W 093°15'0 0.0
2018-Feb-14 23:00N 30°13' W 093°15'0 0.0
2018-Feb-14 22:27N 30°13' W 093°15'0 0.0
2018-Feb-14 22:00N 30°13' W 093°15'0 0.0
2018-Feb-14 21:30N 30°13' W 093°15'0 0.0
2018-Feb-14 21:00N 30°13' W 093°15'2 4.7
2018-Feb-14 20:30N 30°12' W 093°18'0 0.0
2018-Feb-14 20:00N 30°12' W 093°18'1 1.9
2018-Feb-14 19:30N 30°11' W 093°19'0 0.0
2018-Feb-14 19:00N 30°11' W 093°19'0 0.7
2018-Feb-14 18:30N 30°11' W 093°19'4 7.3
2018-Feb-14 18:00N 30°13' W 093°15'0 0.0
2018-Feb-14 17:27N 30°13' W 093°15'0 0.0
2018-Feb-14 17:00N 30°13' W 093°15'0 0.0
2018-Feb-14 16:30N 30°13' W 093°15'0 0.0
2018-Feb-14 15:57N 30°13' W 093°15'0 0.0
2018-Feb-14 15:30N 30°13' W 093°15'0 0.0
2018-Feb-14 15:00N 30°13' W 093°15'0 0.0
2018-Feb-14 14:30N 30°13' W 093°15'0 0.0
2018-Feb-14 14:00N 30°13' W 093°15'0 0.0
2018-Feb-14 13:30N 30°13' W 093°15'0 0.0
2018-Feb-14 13:00N 30°13' W 093°15'0 0.0
2018-Feb-14 12:24N 30°13' W 093°15'0 0.0
2018-Feb-14 12:00N 30°13' W 093°15'0 0.0
2018-Feb-14 11:30N 30°13' W 093°15'0 0.0
2018-Feb-14 11:00N 30°13' W 093°15'1 1.6
2018-Feb-14 10:31N 30°12' W 093°16'4 7.6
2018-Feb-14 10:01N 30°10' W 093°19'1 2.6
2018-Feb-14 09:30N 30°08' W 093°20'2 4.8
2018-Feb-14 09:01N 30°06' W 093°18'1 1.3
2018-Feb-14 08:28N 30°06' W 093°17'0 0.0
2018-Feb-14 07:58N 30°06' W 093°17'0 0.0
2018-Feb-14 07:28N 30°06' W 093°17'0 0.0
2018-Feb-14 06:58N 30°06' W 093°17'0 0.0
2018-Feb-14 06:28N 30°06' W 093°17'0 0.0
2018-Feb-14 05:58N 30°06' W 093°17'0 0.0
2018-Feb-14 05:28N 30°06' W 093°17'0 0.0
2018-Feb-14 04:58N 30°06' W 093°17'0 0.0
2018-Feb-14 04:28N 30°06' W 093°17'0 0.0
2018-Feb-14 03:58N 30°06' W 093°17'0 0.0
2018-Feb-14 03:28N 30°06' W 093°17'0 0.0
2018-Feb-14 02:58N 30°06' W 093°17'0 0.0
2018-Feb-14 02:28N 30°06' W 093°17'0 0.0
2018-Feb-14 01:58N 30°06' W 093°17'0 0.0
2018-Feb-14 01:28N 30°06' W 093°17'0 0.0
2018-Feb-14 00:58N 30°06' W 093°17'0 0.0
2018-Feb-14 00:28N 30°06' W 093°17'0 0.0
2018-Feb-13 23:58N 30°06' W 093°17'0 0.0
2018-Feb-13 23:28N 30°06' W 093°17'0 0.0
2018-Feb-13 22:58N 30°06' W 093°17'0 0.0
2018-Feb-13 22:25N 30°06' W 093°17'0 0.0
2018-Feb-13 21:58N 30°06' W 093°17'0 0.0
2018-Feb-13 21:28N 30°06' W 093°17'0 0.0
2018-Feb-13 20:58N 30°06' W 093°17'0 0.0
2018-Feb-13 20:28N 30°06' W 093°17'0 0.0
2018-Feb-13 19:58N 30°06' W 093°17'0 0.0
2018-Feb-13 19:28N 30°06' W 093°17'0 0.0
2018-Feb-13 18:58N 30°06' W 093°17'0 0.0
2018-Feb-13 18:28N 30°06' W 093°17'0 0.0
2018-Feb-13 17:58N 30°06' W 093°17'0 0.0
2018-Feb-13 17:28N 30°06' W 093°17'0 0.0
2018-Feb-13 16:58N 30°06' W 093°17'0 0.0
2018-Feb-13 16:28N 30°06' W 093°17'0 0.0
2018-Feb-13 15:58N 30°06' W 093°17'0 0.0
2018-Feb-13 15:25N 30°06' W 093°17'0 0.0
2018-Feb-13 14:59N 30°06' W 093°17'2 4.8
2018-Feb-13 14:29N 30°07' W 093°20'4 8.8
2018-Feb-13 14:00N 30°11' W 093°19'3 1.1
2018-Feb-13 10:52N 30°13' W 093°15'0 0.0
2018-Feb-13 06:49N 30°13' W 093°15'0 0.0
2018-Feb-13 06:01N 30°13' W 093°15'0 0.1
2018-Feb-13 05:58N 30°13' W 093°15'0 0.0
2018-Feb-13 05:28N 30°13' W 093°15'0 0.0
2018-Feb-13 04:52N 30°13' W 093°15'0 0.0
2018-Feb-13 03:34N 30°13' W 093°15'0 0.0
2018-Feb-13 03:06N 30°13' W 093°15'1 6.6
2018-Feb-13 03:00N 30°12' W 093°16'4 8.1
2018-Feb-13 02:30N 30°10' W 093°19'1 1.3
2018-Feb-13 02:00N 30°09' W 093°20'0 0.7
2018-Feb-13 01:30N 30°09' W 093°20'0 0.2
2018-Feb-13 01:00N 30°09' W 093°20'0 0.0
2018-Feb-13 00:30N 30°09' W 093°20'0 0.2
2018-Feb-13 00:00N 30°09' W 093°20'1 2.3
2018-Feb-12 23:30N 30°08' W 093°20'2 4.6
2018-Feb-12 23:00N 30°06' W 093°20'3 5.6
2018-Feb-12 22:30N 30°03' W 093°20'2 3.5
2018-Feb-12 22:00N 30°05' W 093°20'2 4.6
2018-Feb-12 21:29N 30°06' W 093°17'0 0.0
2018-Feb-12 20:44N 30°06' W 093°17'0 0.0
2018-Feb-12 20:26N 30°06' W 093°17'0 0.0
2018-Feb-12 19:59N 30°06' W 093°17'0 0.0
2018-Feb-12 19:14N 30°06' W 093°17'0 0.0
2018-Feb-12 18:59N 30°06' W 093°17'0 0.0
2018-Feb-12 18:29N 30°06' W 093°17'0 0.0
2018-Feb-12 17:59N 30°06' W 093°17'0 0.0
2018-Feb-12 17:29N 30°06' W 093°17'0 0.0
2018-Feb-12 16:47N 30°06' W 093°17'0 0.0
2018-Feb-12 16:29N 30°06' W 093°17'0 0.0
2018-Feb-12 15:11N 30°06' W 093°17'0 0.0
2018-Feb-12 14:41N 30°06' W 093°17'0 0.0
2018-Feb-12 13:53N 30°06' W 093°17'2 5.5
2018-Feb-12 13:30N 30°06' W 093°20'3 6.7
2018-Feb-12 13:00N 30°10' W 093°19'1 2.1
2018-Feb-12 12:30N 30°11' W 093°19'0 0.0
2018-Feb-12 11:59N 30°11' W 093°19'0 0.0
2018-Feb-12 11:30N 30°11' W 093°19'0 0.0
2018-Feb-12 10:59N 30°11' W 093°19'0 0.0
2018-Feb-12 10:30N 30°11' W 093°19'3 4.9
2018-Feb-12 09:50N 30°12' W 093°16'1 0.2
2018-Feb-12 06:42N 30°13' W 093°15'0 0.0
2018-Feb-12 05:48N 30°13' W 093°15'0 0.0
2018-Feb-12 05:30N 30°13' W 093°15'0 0.0
2018-Feb-12 01:18N 30°13' W 093°15'0 0.0
2018-Feb-12 01:00N 30°13' W 093°15'0 0.0
2018-Feb-11 23:52N 30°13' W 093°15'1 2.6
2018-Feb-11 23:30N 30°14' W 093°15'9 3.2
2018-Feb-11 20:43N 30°06' W 093°20'0 0.4
2018-Feb-11 20:30N 30°06' W 093°20'2 4.1
2018-Feb-11 20:01N 30°06' W 093°17'0 0.0
2018-Feb-11 19:25N 30°06' W 093°17'0 0.0
2018-Feb-11 18:43N 30°06' W 093°17'0 0.0
2018-Feb-11 18:25N 30°06' W 093°17'0 0.0
2018-Feb-11 17:55N 30°06' W 093°17'0 0.0
2018-Feb-11 17:28N 30°06' W 093°17'0 0.0
2018-Feb-11 16:58N 30°06' W 093°17'0 0.0
2018-Feb-11 16:28N 30°06' W 093°17'0 0.0
2018-Feb-11 15:58N 30°06' W 093°17'0 0.0
2018-Feb-11 15:28N 30°06' W 093°17'0 0.0
2018-Feb-11 14:58N 30°06' W 093°17'0 0.0
2018-Feb-11 14:28N 30°06' W 093°17'0 0.0
2018-Feb-11 13:55N 30°06' W 093°17'0 0.0
2018-Feb-11 13:28N 30°06' W 093°17'0 0.0
2018-Feb-11 12:58N 30°06' W 093°17'0 0.0
2018-Feb-11 12:28N 30°06' W 093°17'0 0.0
2018-Feb-11 11:58N 30°06' W 093°17'0 0.0
2018-Feb-11 11:25N 30°06' W 093°17'0 0.0
2018-Feb-11 10:58N 30°06' W 093°17'0 0.0
2018-Feb-11 10:28N 30°06' W 093°17'0 0.0
2018-Feb-11 09:58N 30°06' W 093°17'0 0.0
2018-Feb-11 09:28N 30°06' W 093°17'0 0.0
2018-Feb-11 08:58N 30°06' W 093°17'0 0.0
2018-Feb-11 08:28N 30°06' W 093°17'0 0.0
2018-Feb-11 07:58N 30°06' W 093°17'0 0.0
2018-Feb-11 07:28N 30°06' W 093°17'0 0.0
2018-Feb-11 06:58N 30°06' W 093°17'0 0.0
2018-Feb-11 06:28N 30°06' W 093°17'0 0.0
2018-Feb-11 05:58N 30°06' W 093°17'0 0.0
2018-Feb-11 05:28N 30°06' W 093°17'0 0.0
2018-Feb-11 04:55N 30°06' W 093°17'0 0.0
2018-Feb-11 04:28N 30°06' W 093°17'0 0.0
2018-Feb-11 03:58N 30°06' W 093°17'0 0.0
2018-Feb-11 03:28N 30°06' W 093°17'0 0.0
2018-Feb-11 02:58N 30°06' W 093°17'0 0.0
2018-Feb-11 02:28N 30°06' W 093°17'0 0.0
2018-Feb-11 01:55N 30°06' W 093°17'0 0.0
2018-Feb-11 01:28N 30°06' W 093°17'0 0.0
2018-Feb-11 00:58N 30°06' W 093°17'0 0.0
2018-Feb-11 00:28N 30°06' W 093°17'0 0.0
2018-Feb-10 23:58N 30°06' W 093°17'0 0.0
2018-Feb-10 23:28N 30°06' W 093°17'0 0.0
2018-Feb-10 22:58N 30°06' W 093°17'0 0.0
2018-Feb-10 22:28N 30°06' W 093°17'0 0.0
2018-Feb-10 21:58N 30°06' W 093°17'0 0.0
2018-Feb-10 21:28N 30°06' W 093°17'0 0.0
2018-Feb-10 20:58N 30°06' W 093°17'0 0.0
2018-Feb-10 20:28N 30°06' W 093°17'0 0.0
2018-Feb-10 20:01N 30°06' W 093°17'2 4.9
2018-Feb-10 19:31N 30°08' W 093°20'3 6.0
2018-Feb-10 18:59N 30°11' W 093°19'0 0.2
2018-Feb-10 18:31N 30°11' W 093°19'0 0.0
2018-Feb-10 18:00N 30°11' W 093°19'1 1.2
2018-Feb-10 17:30N 30°11' W 093°18'0 0.3
2018-Feb-10 17:00N 30°11' W 093°19'0 0.8
2018-Feb-10 16:30N 30°11' W 093°19'1 1.5
2018-Feb-10 16:00N 30°11' W 093°18'3 5.9
2018-Feb-10 15:30N 30°13' W 093°15'0 0.0
2018-Feb-10 15:00N 30°13' W 093°15'0 0.0
2018-Feb-10 14:30N 30°13' W 093°15'0 0.0
2018-Feb-10 14:00N 30°13' W 093°15'0 0.0
2018-Feb-10 13:27N 30°13' W 093°15'0 0.0
2018-Feb-10 13:00N 30°13' W 093°15'0 0.0
2018-Feb-10 12:27N 30°13' W 093°15'0 0.0
2018-Feb-10 12:00N 30°13' W 093°15'0 0.0
2018-Feb-10 11:30N 30°13' W 093°15'0 0.0
2018-Feb-10 11:00N 30°13' W 093°15'0 0.0
2018-Feb-10 10:30N 30°13' W 093°15'0 0.0
2018-Feb-10 10:00N 30°13' W 093°15'0 0.0
2018-Feb-10 09:30N 30°13' W 093°15'0 0.0
2018-Feb-10 09:00N 30°13' W 093°15'0 0.0
2018-Feb-10 07:45N 30°13' W 093°15'0 0.0
2018-Feb-10 07:30N 30°13' W 093°15'0 0.0
2018-Feb-10 06:57N 30°13' W 093°15'0 0.0
2018-Feb-10 06:21N 30°13' W 093°15'0 0.0
2018-Feb-10 05:57N 30°13' W 093°15'0 0.0
2018-Feb-10 05:30N 30°13' W 093°15'0 0.0
2018-Feb-10 04:57N 30°13' W 093°15'0 0.0
2018-Feb-10 04:30N 30°13' W 093°15'3 5.5
2018-Feb-10 04:00N 30°11' W 093°18'1 1.0
2018-Feb-10 03:30N 30°11' W 093°18'1 2.6
2018-Feb-10 03:01N 30°10' W 093°19'2 4.9
2018-Feb-10 02:30N 30°07' W 093°20'2 3.3
2018-Feb-10 02:00N 30°06' W 093°19'1 2.6
2018-Feb-10 01:29N 30°06' W 093°17'0 0.0
2018-Feb-10 01:00N 30°06' W 093°17'  
Track history (hours):
 
Tides and Currents Weather Stations Pressure Air Temp Water Temp Dewpoint Dewpoint Depression Visibility Wind Speed Wind Dir Waves Ship Positions

Energy Zeus

Owner: Seabulk Towing Services, Inc., Fort Lauderdale, FL. More information available from US FCC via Universal Licensing System and Coast Guard Vessel Documentation Center.

Last reported at 2018-Feb-17 21:31 UTC. Time now 2018-Feb-17 21:47 UTC.
Position N 30°11' W 093°19'.

Length 30 m; draft 4 m.

Type: Tug. MMSI: 367138360.

Date/timePositionNaut miles runAvg speedWind from/ knotsBaromVisibWave heightAir tempDewpointWater temp
2018-Feb-17 21:31N 30°11' W 093°19'0 0.4
2018-Feb-17 21:00N 30°11' W 093°19'1 1.5
2018-Feb-17 20:30N 30°10' W 093°19'4 7.0
2018-Feb-17 20:00N 30°07' W 093°20'2 4.0
2018-Feb-17 19:28N 30°06' W 093°17'0 0.0
2018-Feb-17 18:58N 30°06' W 093°17'0 0.0
2018-Feb-17 18:28N 30°06' W 093°17'0 0.0
2018-Feb-17 17:58N 30°06' W 093°17'0 0.0
2018-Feb-17 17:28N 30°06' W 093°17'0 0.0
2018-Feb-17 16:58N 30°06' W 093°17'0 0.0
2018-Feb-17 16:28N 30°06' W 093°17'0 0.0
2018-Feb-17 15:58N 30°06' W 093°17'0 0.0
2018-Feb-17 15:28N 30°06' W 093°17'0 0.0
2018-Feb-17 14:58N 30°06' W 093°17'0 0.0
2018-Feb-17 14:28N 30°06' W 093°17'0 0.0
2018-Feb-17 13:58N 30°06' W 093°17'0 0.0
2018-Feb-17 13:28N 30°06' W 093°17'0 0.0
2018-Feb-17 12:58N 30°06' W 093°17'0 0.0
2018-Feb-17 12:25N 30°06' W 093°17'0 0.0
2018-Feb-17 11:58N 30°06' W 093°17'0 0.0
2018-Feb-17 11:28N 30°06' W 093°17'0 0.0
2018-Feb-17 10:58N 30°06' W 093°17'0 0.0
2018-Feb-17 10:28N 30°06' W 093°17'0 0.0
2018-Feb-17 09:58N 30°06' W 093°17'0 0.0
2018-Feb-17 09:28N 30°06' W 093°17'0 0.0
2018-Feb-17 08:58N 30°06' W 093°17'0 0.0
2018-Feb-17 08:28N 30°06' W 093°17'0 0.0
2018-Feb-17 07:58N 30°06' W 093°17'0 0.0
2018-Feb-17 07:28N 30°06' W 093°17'0 0.0
2018-Feb-17 06:58N 30°06' W 093°17'0 0.0
2018-Feb-17 06:28N 30°06' W 093°17'0 0.0
2018-Feb-17 05:58N 30°06' W 093°17'0 0.0
2018-Feb-17 05:28N 30°06' W 093°17'0 0.0
2018-Feb-17 04:58N 30°06' W 093°17'0 0.0
2018-Feb-17 04:28N 30°06' W 093°17'0 0.0
2018-Feb-17 03:58N 30°06' W 093°17'0 0.0
2018-Feb-17 03:28N 30°06' W 093°17'0 0.0
2018-Feb-17 02:58N 30°06' W 093°17'0 0.0
2018-Feb-17 02:28N 30°06' W 093°17'0 0.0
2018-Feb-17 01:58N 30°06' W 093°17'0 0.0
2018-Feb-17 01:28N 30°06' W 093°17'0 0.0
2018-Feb-17 00:55N 30°06' W 093°17'0 0.0
2018-Feb-17 00:28N 30°06' W 093°17'0 0.0
2018-Feb-16 23:58N 30°06' W 093°17'0 0.0
2018-Feb-16 23:13N 30°06' W 093°17'0 0.0
2018-Feb-16 22:55N 30°06' W 093°17'0 0.0
2018-Feb-16 22:25N 30°06' W 093°17'0 0.0
2018-Feb-16 21:58N 30°06' W 093°17'0 0.0
2018-Feb-16 21:28N 30°06' W 093°17'0 0.0
2018-Feb-16 20:58N 30°06' W 093°17'0 0.0
2018-Feb-16 20:28N 30°06' W 093°17'1 2.6
2018-Feb-16 19:59N 30°06' W 093°19'3 5.6
2018-Feb-16 19:30N 30°09' W 093°20'2 4.8
2018-Feb-16 19:01N 30°11' W 093°19'1 1.9
2018-Feb-16 18:31N 30°11' W 093°18'0 0.4
2018-Feb-16 18:00N 30°12' W 093°18'1 2.1
2018-Feb-16 17:31N 30°11' W 093°19'1 1.2
2018-Feb-16 17:00N 30°10' W 093°19'1 1.7
2018-Feb-16 16:30N 30°10' W 093°20'0 0.0
2018-Feb-16 16:00N 30°10' W 093°20'4 7.2
2018-Feb-16 15:30N 30°12' W 093°17'1 2.3
2018-Feb-16 15:01N 30°13' W 093°15'0 0.0
2018-Feb-16 14:31N 30°13' W 093°15'0 0.0
2018-Feb-16 14:01N 30°13' W 093°15'0 0.0
2018-Feb-16 13:31N 30°13' W 093°15'0 0.0
2018-Feb-16 13:01N 30°13' W 093°15'0 0.0
2018-Feb-16 12:31N 30°13' W 093°15'0 0.0
2018-Feb-16 11:55N 30°13' W 093°15'0 0.0
2018-Feb-16 11:31N 30°13' W 093°15'0 0.0
2018-Feb-16 11:01N 30°13' W 093°15'0 0.0
2018-Feb-16 10:30N 30°13' W 093°15'0 0.0
2018-Feb-16 09:46N 30°13' W 093°15'0 0.0
2018-Feb-16 09:28N 30°13' W 093°15'0 0.0
2018-Feb-16 08:58N 30°13' W 093°15'0 0.0
2018-Feb-16 08:31N 30°13' W 093°15'0 0.0
2018-Feb-16 08:00N 30°13' W 093°15'0 0.0
2018-Feb-16 07:27N 30°13' W 093°15'0 0.0
2018-Feb-16 07:01N 30°13' W 093°15'0 0.0
2018-Feb-16 06:27N 30°13' W 093°15'0 0.0
2018-Feb-16 06:01N 30°13' W 093°15'0 0.0
2018-Feb-16 05:30N 30°13' W 093°15'0 0.0
2018-Feb-16 04:54N 30°13' W 093°15'0 0.0
2018-Feb-16 04:30N 30°13' W 093°15'0 0.0
2018-Feb-16 03:54N 30°13' W 093°15'0 0.0
2018-Feb-16 03:30N 30°13' W 093°15'0 0.0
2018-Feb-16 03:00N 30°13' W 093°15'0 0.0
2018-Feb-16 02:30N 30°13' W 093°15'0 0.0
2018-Feb-16 02:00N 30°13' W 093°15'0 0.0
2018-Feb-16 01:30N 30°13' W 093°15'0 0.0
2018-Feb-16 01:00N 30°13' W 093°15'0 0.0
2018-Feb-16 00:24N 30°13' W 093°15'0 0.0
2018-Feb-16 00:00N 30°13' W 093°15'0 0.0
2018-Feb-15 23:18N 30°13' W 093°15'0 0.0
2018-Feb-15 23:00N 30°13' W 093°15'0 0.0
2018-Feb-15 22:27N 30°13' W 093°15'0 0.0
2018-Feb-15 22:00N 30°13' W 093°15'0 0.0
2018-Feb-15 21:30N 30°13' W 093°15'0 0.0
2018-Feb-15 21:00N 30°13' W 093°15'0 0.0
2018-Feb-15 20:30N 30°13' W 093°15'0 0.0
2018-Feb-15 19:57N 30°13' W 093°15'0 0.0
2018-Feb-15 19:30N 30°13' W 093°15'0 0.0
2018-Feb-15 18:57N 30°13' W 093°15'0 0.0
2018-Feb-15 18:30N 30°13' W 093°15'0 0.0
2018-Feb-15 18:00N 30°13' W 093°15'0 0.0
2018-Feb-15 17:30N 30°13' W 093°15'0 0.0
2018-Feb-15 17:00N 30°13' W 093°15'0 0.0
2018-Feb-15 16:30N 30°13' W 093°15'0 0.0
2018-Feb-15 16:00N 30°13' W 093°15'0 0.0
2018-Feb-15 15:30N 30°13' W 093°15'0 0.0
2018-Feb-15 15:00N 30°13' W 093°15'0 0.0
2018-Feb-15 14:30N 30°13' W 093°15'0 0.0
2018-Feb-15 14:00N 30°13' W 093°15'0 0.0
2018-Feb-15 13:27N 30°13' W 093°15'0 0.0
2018-Feb-15 13:00N 30°13' W 093°15'0 0.0
2018-Feb-15 12:30N 30°13' W 093°15'0 0.0
2018-Feb-15 12:00N 30°13' W 093°15'0 0.0
2018-Feb-15 11:30N 30°13' W 093°15'0 0.0
2018-Feb-15 10:51N 30°13' W 093°15'0 0.0
2018-Feb-15 10:30N 30°13' W 093°15'0 0.0
2018-Feb-15 09:57N 30°13' W 093°15'0 0.0
2018-Feb-15 09:30N 30°13' W 093°15'0 0.0
2018-Feb-15 08:57N 30°13' W 093°15'0 0.0
2018-Feb-15 08:30N 30°13' W 093°15'0 0.0
2018-Feb-15 07:51N 30°13' W 093°15'0 0.0
2018-Feb-15 07:21N 30°13' W 093°15'0 0.0
2018-Feb-15 06:57N 30°13' W 093°15'0 0.0
2018-Feb-15 06:24N 30°13' W 093°15'0 0.0
2018-Feb-15 05:57N 30°13' W 093°15'0 0.0
2018-Feb-15 05:30N 30°13' W 093°15'0 0.0
2018-Feb-15 05:00N 30°13' W 093°15'0 0.0
2018-Feb-15 04:30N 30°13' W 093°15'0 0.0
2018-Feb-15 04:00N 30°13' W 093°15'0 0.0
2018-Feb-15 03:21N 30°13' W 093°15'0 0.0
2018-Feb-15 02:57N 30°13' W 093°15'0 0.0
2018-Feb-15 02:15N 30°13' W 093°15'0 0.0
2018-Feb-15 01:39N 30°13' W 093°15'0 0.0
2018-Feb-15 01:27N 30°13' W 093°15'0 0.0
2018-Feb-15 00:51N 30°13' W 093°15'0 0.0
2018-Feb-15 00:30N 30°13' W 093°15'0 0.0
2018-Feb-15 00:00N 30°13' W 093°15'0 0.0
2018-Feb-14 23:30N 30°13' W 093°15'0 0.0
2018-Feb-14 23:00N 30°13' W 093°15'0 0.0
2018-Feb-14 22:27N 30°13' W 093°15'0 0.0
2018-Feb-14 22:00N 30°13' W 093°15'0 0.0
2018-Feb-14 21:30N 30°13' W 093°15'0 0.0
2018-Feb-14 21:00N 30°13' W 093°15'2 4.7
2018-Feb-14 20:30N 30°12' W 093°18'0 0.0
2018-Feb-14 20:00N 30°12' W 093°18'1 1.9
2018-Feb-14 19:30N 30°11' W 093°19'0 0.0
2018-Feb-14 19:00N 30°11' W 093°19'0 0.7
2018-Feb-14 18:30N 30°11' W 093°19'4 7.3
2018-Feb-14 18:00N 30°13' W 093°15'0 0.0
2018-Feb-14 17:27N 30°13' W 093°15'0 0.0
2018-Feb-14 17:00N 30°13' W 093°15'0 0.0
2018-Feb-14 16:30N 30°13' W 093°15'0 0.0
2018-Feb-14 15:57N 30°13' W 093°15'0 0.0
2018-Feb-14 15:30N 30°13' W 093°15'0 0.0
2018-Feb-14 15:00N 30°13' W 093°15'0 0.0
2018-Feb-14 14:30N 30°13' W 093°15'0 0.0
2018-Feb-14 14:00N 30°13' W 093°15'0 0.0
2018-Feb-14 13:30N 30°13' W 093°15'0 0.0
2018-Feb-14 13:00N 30°13' W 093°15'0 0.0
2018-Feb-14 12:24N 30°13' W 093°15'0 0.0
2018-Feb-14 12:00N 30°13' W 093°15'0 0.0
2018-Feb-14 11:30N 30°13' W 093°15'0 0.0
2018-Feb-14 11:00N 30°13' W 093°15'1 1.6
2018-Feb-14 10:31N 30°12' W 093°16'4 7.6
2018-Feb-14 10:01N 30°10' W 093°19'1 2.6
2018-Feb-14 09:30N 30°08' W 093°20'2 4.8
2018-Feb-14 09:01N 30°06' W 093°18'1 1.3
2018-Feb-14 08:28N 30°06' W 093°17'0 0.0
2018-Feb-14 07:58N 30°06' W 093°17'0 0.0
2018-Feb-14 07:28N 30°06' W 093°17'0 0.0
2018-Feb-14 06:58N 30°06' W 093°17'0 0.0
2018-Feb-14 06:28N 30°06' W 093°17'0 0.0
2018-Feb-14 05:58N 30°06' W 093°17'0 0.0
2018-Feb-14 05:28N 30°06' W 093°17'0 0.0
2018-Feb-14 04:58N 30°06' W 093°17'0 0.0
2018-Feb-14 04:28N 30°06' W 093°17'0 0.0
2018-Feb-14 03:58N 30°06' W 093°17'0 0.0
2018-Feb-14 03:28N 30°06' W 093°17'0 0.0
2018-Feb-14 02:58N 30°06' W 093°17'0 0.0
2018-Feb-14 02:28N 30°06' W 093°17'0 0.0
2018-Feb-14 01:58N 30°06' W 093°17'0 0.0
2018-Feb-14 01:28N 30°06' W 093°17'0 0.0
2018-Feb-14 00:58N 30°06' W 093°17'0 0.0
2018-Feb-14 00:28N 30°06' W 093°17'0 0.0
2018-Feb-13 23:58N 30°06' W 093°17'0 0.0
2018-Feb-13 23:28N 30°06' W 093°17'0 0.0
2018-Feb-13 22:58N 30°06' W 093°17'0 0.0
2018-Feb-13 22:25N 30°06' W 093°17'0 0.0
2018-Feb-13 21:58N 30°06' W 093°17'0 0.0
2018-Feb-13 21:28N 30°06' W 093°17'0 0.0
2018-Feb-13 20:58N 30°06' W 093°17'0 0.0
2018-Feb-13 20:28N 30°06' W 093°17'0 0.0
2018-Feb-13 19:58N 30°06' W 093°17'0 0.0
2018-Feb-13 19:28N 30°06' W 093°17'0 0.0
2018-Feb-13 18:58N 30°06' W 093°17'0 0.0
2018-Feb-13 18:28N 30°06' W 093°17'0 0.0
2018-Feb-13 17:58N 30°06' W 093°17'0 0.0
2018-Feb-13 17:28N 30°06' W 093°17'0 0.0
2018-Feb-13 16:58N 30°06' W 093°17'0 0.0
2018-Feb-13 16:28N 30°06' W 093°17'0 0.0
2018-Feb-13 15:58N 30°06' W 093°17'0 0.0
2018-Feb-13 15:25N 30°06' W 093°17'0 0.0
2018-Feb-13 14:59N 30°06' W 093°17'2 4.8
2018-Feb-13 14:29N 30°07' W 093°20'4 8.8
2018-Feb-13 14:00N 30°11' W 093°19'3 1.1
2018-Feb-13 10:52N 30°13' W 093°15'0 0.0
2018-Feb-13 06:49N 30°13' W 093°15'0 0.0
2018-Feb-13 06:01N 30°13' W 093°15'0 0.1
2018-Feb-13 05:58N 30°13' W 093°15'0 0.0
2018-Feb-13 05:28N 30°13' W 093°15'0 0.0
2018-Feb-13 04:52N 30°13' W 093°15'0 0.0
2018-Feb-13 03:34N 30°13' W 093°15'0 0.0
2018-Feb-13 03:06N 30°13' W 093°15'1 6.6
2018-Feb-13 03:00N 30°12' W 093°16'4 8.1
2018-Feb-13 02:30N 30°10' W 093°19'1 1.3
2018-Feb-13 02:00N 30°09' W 093°20'0 0.7
2018-Feb-13 01:30N 30°09' W 093°20'0 0.2
2018-Feb-13 01:00N 30°09' W 093°20'0 0.0
2018-Feb-13 00:30N 30°09' W 093°20'0 0.2
2018-Feb-13 00:00N 30°09' W 093°20'1 2.3
2018-Feb-12 23:30N 30°08' W 093°20'2 4.6
2018-Feb-12 23:00N 30°06' W 093°20'3 5.6
2018-Feb-12 22:30N 30°03' W 093°20'2 3.5
2018-Feb-12 22:00N 30°05' W 093°20'2 4.6
2018-Feb-12 21:29N 30°06' W 093°17'0 0.0
2018-Feb-12 20:44N 30°06' W 093°17'0 0.0
2018-Feb-12 20:26N 30°06' W 093°17'0 0.0
2018-Feb-12 19:59N 30°06' W 093°17'0 0.0
2018-Feb-12 19:14N 30°06' W 093°17'0 0.0
2018-Feb-12 18:59N 30°06' W 093°17'0 0.0
2018-Feb-12 18:29N 30°06' W 093°17'0 0.0
2018-Feb-12 17:59N 30°06' W 093°17'0 0.0
2018-Feb-12 17:29N 30°06' W 093°17'0 0.0
2018-Feb-12 16:47N 30°06' W 093°17'0 0.0
2018-Feb-12 16:29N 30°06' W 093°17'0 0.0
2018-Feb-12 15:11N 30°06' W 093°17'0 0.0
2018-Feb-12 14:41N 30°06' W 093°17'0 0.0
2018-Feb-12 13:53N 30°06' W 093°17'2 5.5
2018-Feb-12 13:30N 30°06' W 093°20'3 6.7
2018-Feb-12 13:00N 30°10' W 093°19'1 2.1
2018-Feb-12 12:30N 30°11' W 093°19'0 0.0
2018-Feb-12 11:59N 30°11' W 093°19'0 0.0
2018-Feb-12 11:30N 30°11' W 093°19'0 0.0
2018-Feb-12 10:59N 30°11' W 093°19'0 0.0
2018-Feb-12 10:30N 30°11' W 093°19'3 4.9
2018-Feb-12 09:50N 30°12' W 093°16'1 0.2
2018-Feb-12 06:42N 30°13' W 093°15'0 0.0
2018-Feb-12 05:48N 30°13' W 093°15'0 0.0
2018-Feb-12 05:30N 30°13' W 093°15'0 0.0
2018-Feb-12 01:18N 30°13' W 093°15'0 0.0
2018-Feb-12 01:00N 30°13' W 093°15'0 0.0
2018-Feb-11 23:52N 30°13' W 093°15'1 2.6
2018-Feb-11 23:30N 30°14' W 093°15'9 3.2
2018-Feb-11 20:43N 30°06' W 093°20'0 0.4
2018-Feb-11 20:30N 30°06' W 093°20'2 4.1
2018-Feb-11 20:01N 30°06' W 093°17'0 0.0
2018-Feb-11 19:25N 30°06' W 093°17'0 0.0
2018-Feb-11 18:43N 30°06' W 093°17'0 0.0
2018-Feb-11 18:25N 30°06' W 093°17'0 0.0
2018-Feb-11 17:55N 30°06' W 093°17'0 0.0
2018-Feb-11 17:28N 30°06' W 093°17'0 0.0
2018-Feb-11 16:58N 30°06' W 093°17'0 0.0
2018-Feb-11 16:28N 30°06' W 093°17'0 0.0
2018-Feb-11 15:58N 30°06' W 093°17'0 0.0
2018-Feb-11 15:28N 30°06' W 093°17'0 0.0
2018-Feb-11 14:58N 30°06' W 093°17'0 0.0
2018-Feb-11 14:28N 30°06' W 093°17'0 0.0
2018-Feb-11 13:55N 30°06' W 093°17'0 0.0
2018-Feb-11 13:28N 30°06' W 093°17'0 0.0
2018-Feb-11 12:58N 30°06' W 093°17'0 0.0
2018-Feb-11 12:28N 30°06' W 093°17'0 0.0
2018-Feb-11 11:58N 30°06' W 093°17'0 0.0
2018-Feb-11 11:25N 30°06' W 093°17'0 0.0
2018-Feb-11 10:58N 30°06' W 093°17'0 0.0
2018-Feb-11 10:28N 30°06' W 093°17'0 0.0
2018-Feb-11 09:58N 30°06' W 093°17'0 0.0
2018-Feb-11 09:28N 30°06' W 093°17'0 0.0
2018-Feb-11 08:58N 30°06' W 093°17'0 0.0
2018-Feb-11 08:28N 30°06' W 093°17'0 0.0
2018-Feb-11 07:58N 30°06' W 093°17'0 0.0
2018-Feb-11 07:28N 30°06' W 093°17'0 0.0
2018-Feb-11 06:58N 30°06' W 093°17'0 0.0
2018-Feb-11 06:28N 30°06' W 093°17'0 0.0
2018-Feb-11 05:58N 30°06' W 093°17'0 0.0
2018-Feb-11 05:28N 30°06' W 093°17'0 0.0
2018-Feb-11 04:55N 30°06' W 093°17'0 0.0
2018-Feb-11 04:28N 30°06' W 093°17'0 0.0
2018-Feb-11 03:58N 30°06' W 093°17'0 0.0
2018-Feb-11 03:28N 30°06' W 093°17'0 0.0
2018-Feb-11 02:58N 30°06' W 093°17'0 0.0
2018-Feb-11 02:28N 30°06' W 093°17'0 0.0
2018-Feb-11 01:55N 30°06' W 093°17'0 0.0
2018-Feb-11 01:28N 30°06' W 093°17'0 0.0
2018-Feb-11 00:58N 30°06' W 093°17'0 0.0
2018-Feb-11 00:28N 30°06' W 093°17'0 0.0
2018-Feb-10 23:58N 30°06' W 093°17'0 0.0
2018-Feb-10 23:28N 30°06' W 093°17'0 0.0
2018-Feb-10 22:58N 30°06' W 093°17'0 0.0
2018-Feb-10 22:28N 30°06' W 093°17'0 0.0
2018-Feb-10 21:58N 30°06' W 093°17'0 0.0
2018-Feb-10 21:28N 30°06' W 093°17'0 0.0
2018-Feb-10 20:58N 30°06' W 093°17'0 0.0
2018-Feb-10 20:28N 30°06' W 093°17'0 0.0
2018-Feb-10 20:01N 30°06' W 093°17'2 4.9
2018-Feb-10 19:31N 30°08' W 093°20'3 6.0
2018-Feb-10 18:59N 30°11' W 093°19'0 0.2
2018-Feb-10 18:31N 30°11' W 093°19'0 0.0
2018-Feb-10 18:00N 30°11' W 093°19'1 1.2
2018-Feb-10 17:30N 30°11' W 093°18'0 0.3
2018-Feb-10 17:00N 30°11' W 093°19'0 0.8
2018-Feb-10 16:30N 30°11' W 093°19'1 1.5
2018-Feb-10 16:00N 30°11' W 093°18'3 5.9
2018-Feb-10 15:30N 30°13' W 093°15'0 0.0
2018-Feb-10 15:00N 30°13' W 093°15'0 0.0
2018-Feb-10 14:30N 30°13' W 093°15'0 0.0
2018-Feb-10 14:00N 30°13' W 093°15'0 0.0
2018-Feb-10 13:27N 30°13' W 093°15'0 0.0
2018-Feb-10 13:00N 30°13' W 093°15'0 0.0
2018-Feb-10 12:27N 30°13' W 093°15'0 0.0
2018-Feb-10 12:00N 30°13' W 093°15'0 0.0
2018-Feb-10 11:30N 30°13' W 093°15'0 0.0
2018-Feb-10 11:00N 30°13' W 093°15'0 0.0
2018-Feb-10 10:30N 30°13' W 093°15'0 0.0
2018-Feb-10 10:00N 30°13' W 093°15'0 0.0
2018-Feb-10 09:30N 30°13' W 093°15'0 0.0
2018-Feb-10 09:00N 30°13' W 093°15'0 0.0
2018-Feb-10 07:45N 30°13' W 093°15'0 0.0
2018-Feb-10 07:30N 30°13' W 093°15'0 0.0
2018-Feb-10 06:57N 30°13' W 093°15'0 0.0
2018-Feb-10 06:21N 30°13' W 093°15'0 0.0
2018-Feb-10 05:57N 30°13' W 093°15'0 0.0
2018-Feb-10 05:30N 30°13' W 093°15'0 0.0
2018-Feb-10 04:57N 30°13' W 093°15'0 0.0
2018-Feb-10 04:30N 30°13' W 093°15'3 5.5
2018-Feb-10 04:00N 30°11' W 093°18'1 1.0
2018-Feb-10 03:30N 30°11' W 093°18'1 2.6
2018-Feb-10 03:01N 30°10' W 093°19'2 4.9
2018-Feb-10 02:30N 30°07' W 093°20'2 3.3
2018-Feb-10 02:00N 30°06' W 093°19'1 2.6
2018-Feb-10 01:29N 30°06' W 093°17'0 0.0
2018-Feb-10 01:00N 30°06' W 093°17'  

Dump ship's entire track history